sensor_id;sensor_type;location;lat;lon;timestamp;P1;durP1;ratioP1;P2;durP2;ratioP2
24277;SDS011;12394;42.692;23.314;2024-03-25T00:01:59;0.90;;;0.50;;
24277;SDS011;12394;42.692;23.314;2024-03-25T00:07:47;1.23;;;1.00;;
24277;SDS011;12394;42.692;23.314;2024-03-25T00:10:13;0.70;;;0.70;;
24277;SDS011;12394;42.692;23.314;2024-03-25T00:12:38;0.90;;;0.90;;
24277;SDS011;12394;42.692;23.314;2024-03-25T00:15:04;1.90;;;1.10;;
24277;SDS011;12394;42.692;23.314;2024-03-25T00:17:29;1.30;;;1.03;;
24277;SDS011;12394;42.692;23.314;2024-03-25T00:19:55;1.57;;;1.40;;
24277;SDS011;12394;42.692;23.314;2024-03-25T00:22:21;1.27;;;1.00;;
24277;SDS011;12394;42.692;23.314;2024-03-25T00:24:50;1.37;;;1.10;;
24277;SDS011;12394;42.692;23.314;2024-03-25T00:27:16;1.60;;;0.80;;
24277;SDS011;12394;42.692;23.314;2024-03-25T00:29:42;0.80;;;0.77;;
24277;SDS011;12394;42.692;23.314;2024-03-25T00:32:07;1.73;;;0.90;;
24277;SDS011;12394;42.692;23.314;2024-03-25T00:34:33;1.70;;;0.83;;
24277;SDS011;12394;42.692;23.314;2024-03-25T00:36:59;0.90;;;0.83;;
24277;SDS011;12394;42.692;23.314;2024-03-25T00:39:25;0.70;;;0.70;;
24277;SDS011;12394;42.692;23.314;2024-03-25T00:41:51;0.90;;;0.90;;
24277;SDS011;12394;42.692;23.314;2024-03-25T00:44:17;0.87;;;0.87;;
24277;SDS011;12394;42.692;23.314;2024-03-25T00:46:43;1.07;;;0.80;;
24277;SDS011;12394;42.692;23.314;2024-03-25T00:49:09;1.23;;;0.87;;
24277;SDS011;12394;42.692;23.314;2024-03-25T00:51:35;1.43;;;1.27;;
24277;SDS011;12394;42.692;23.314;2024-03-25T00:54:00;1.27;;;1.03;;
24277;SDS011;12394;42.692;23.314;2024-03-25T00:56:26;1.80;;;1.23;;
24277;SDS011;12394;42.692;23.314;2024-03-25T00:58:52;3.10;;;1.00;;
24277;SDS011;12394;42.692;23.314;2024-03-25T01:01:17;1.27;;;1.00;;
24277;SDS011;12394;42.692;23.314;2024-03-25T01:03:43;1.63;;;0.93;;
24277;SDS011;12394;42.692;23.314;2024-03-25T01:06:08;3.30;;;0.83;;
24277;SDS011;12394;42.692;23.314;2024-03-25T01:08:34;0.40;;;0.30;;
24277;SDS011;12394;42.692;23.314;2024-03-25T01:10:59;0.40;;;0.40;;
24277;SDS011;12394;42.692;23.314;2024-03-25T01:13:25;0.37;;;0.37;;
24277;SDS011;12394;42.692;23.314;2024-03-25T01:15:51;0.50;;;0.47;;
24277;SDS011;12394;42.692;23.314;2024-03-25T01:18:17;0.30;;;0.30;;
24277;SDS011;12394;42.692;23.314;2024-03-25T01:20:42;1.17;;;0.60;;
24277;SDS011;12394;42.692;23.314;2024-03-25T01:23:09;0.90;;;0.60;;
24277;SDS011;12394;42.692;23.314;2024-03-25T01:25:35;0.40;;;0.40;;
24277;SDS011;12394;42.692;23.314;2024-03-25T01:28:00;0.40;;;0.40;;
24277;SDS011;12394;42.692;23.314;2024-03-25T01:30:26;0.80;;;0.80;;
24277;SDS011;12394;42.692;23.314;2024-03-25T01:32:53;0.90;;;0.77;;
24277;SDS011;12394;42.692;23.314;2024-03-25T01:35:19;1.17;;;0.73;;
24277;SDS011;12394;42.692;23.314;2024-03-25T01:37:45;0.70;;;0.70;;
24277;SDS011;12394;42.692;23.314;2024-03-25T01:40:11;0.93;;;0.70;;
24277;SDS011;12394;42.692;23.314;2024-03-25T01:42:37;0.70;;;0.67;;
24277;SDS011;12394;42.692;23.314;2024-03-25T01:45:03;1.23;;;0.87;;
24277;SDS011;12394;42.692;23.314;2024-03-25T01:47:30;0.63;;;0.63;;
24277;SDS011;12394;42.692;23.314;2024-03-25T01:49:58;1.27;;;0.60;;
24277;SDS011;12394;42.692;23.314;2024-03-25T01:52:25;0.50;;;0.50;;
24277;SDS011;12394;42.692;23.314;2024-03-25T01:54:51;0.53;;;0.53;;
24277;SDS011;12394;42.692;23.314;2024-03-25T01:57:18;0.67;;;0.60;;
24277;SDS011;12394;42.692;23.314;2024-03-25T01:59:45;0.53;;;0.50;;
24277;SDS011;12394;42.692;23.314;2024-03-25T02:02:11;0.47;;;0.47;;
24277;SDS011;12394;42.692;23.314;2024-03-25T02:04:38;0.47;;;0.47;;
24277;SDS011;12394;42.692;23.314;2024-03-25T02:07:05;0.60;;;0.60;;
24277;SDS011;12394;42.692;23.314;2024-03-25T02:09:33;0.40;;;0.40;;
24277;SDS011;12394;42.692;23.314;2024-03-25T02:11:59;0.50;;;0.50;;
24277;SDS011;12394;42.692;23.314;2024-03-25T02:14:26;0.40;;;0.40;;
24277;SDS011;12394;42.692;23.314;2024-03-25T02:16:52;1.70;;;0.53;;
24277;SDS011;12394;42.692;23.314;2024-03-25T02:19:18;0.83;;;0.50;;
24277;SDS011;12394;42.692;23.314;2024-03-25T02:21:44;0.50;;;0.50;;
24277;SDS011;12394;42.692;23.314;2024-03-25T02:27:31;1.03;;;0.73;;
24277;SDS011;12394;42.692;23.314;2024-03-25T02:30:07;0.90;;;0.80;;
24277;SDS011;12394;42.692;23.314;2024-03-25T02:32:39;0.80;;;0.80;;
24277;SDS011;12394;42.692;23.314;2024-03-25T02:35:06;0.60;;;0.60;;
24277;SDS011;12394;42.692;23.314;2024-03-25T02:37:36;1.00;;;0.77;;
24277;SDS011;12394;42.692;23.314;2024-03-25T02:40:03;0.60;;;0.60;;
24277;SDS011;12394;42.692;23.314;2024-03-25T02:42:32;0.53;;;0.53;;
24277;SDS011;12394;42.692;23.314;2024-03-25T02:54:41;0.50;;;0.50;;
24277;SDS011;12394;42.692;23.314;2024-03-25T03:02:58;0.93;;;0.70;;
24277;SDS011;12394;42.692;23.314;2024-03-25T03:05:23;0.90;;;0.70;;
24277;SDS011;12394;42.692;23.314;2024-03-25T03:07:49;0.50;;;0.50;;
24277;SDS011;12394;42.692;23.314;2024-03-25T03:10:14;0.80;;;0.80;;
24277;SDS011;12394;42.692;23.314;2024-03-25T03:12:41;0.83;;;0.83;;
24277;SDS011;12394;42.692;23.314;2024-03-25T03:15:06;1.00;;;0.90;;
24277;SDS011;12394;42.692;23.314;2024-03-25T03:17:32;0.80;;;0.80;;
24277;SDS011;12394;42.692;23.314;2024-03-25T03:19:58;0.70;;;0.70;;
24277;SDS011;12394;42.692;23.314;2024-03-25T03:22:23;0.80;;;0.80;;
24277;SDS011;12394;42.692;23.314;2024-03-25T03:24:49;1.10;;;1.00;;
24277;SDS011;12394;42.692;23.314;2024-03-25T03:27:14;0.80;;;0.80;;
24277;SDS011;12394;42.692;23.314;2024-03-25T03:29:40;9.40;;;5.60;;
24277;SDS011;12394;42.692;23.314;2024-03-25T03:32:05;1.40;;;1.03;;
24277;SDS011;12394;42.692;23.314;2024-03-25T03:34:31;0.80;;;0.80;;
24277;SDS011;12394;42.692;23.314;2024-03-25T03:36:56;0.90;;;0.90;;
24277;SDS011;12394;42.692;23.314;2024-03-25T03:39:22;1.40;;;1.20;;
24277;SDS011;12394;42.692;23.314;2024-03-25T03:41:47;1.53;;;1.33;;
24277;SDS011;12394;42.692;23.314;2024-03-25T03:44:13;1.43;;;1.30;;
24277;SDS011;12394;42.692;23.314;2024-03-25T03:46:40;1.83;;;1.50;;
24277;SDS011;12394;42.692;23.314;2024-03-25T03:49:05;1.47;;;1.00;;
24277;SDS011;12394;42.692;23.314;2024-03-25T03:51:31;1.30;;;1.20;;
24277;SDS011;12394;42.692;23.314;2024-03-25T03:53:56;1.60;;;1.20;;
24277;SDS011;12394;42.692;23.314;2024-03-25T03:56:22;1.13;;;1.03;;
24277;SDS011;12394;42.692;23.314;2024-03-25T03:58:47;1.40;;;1.30;;
24277;SDS011;12394;42.692;23.314;2024-03-25T04:01:17;2.17;;;1.77;;
24277;SDS011;12394;42.692;23.314;2024-03-25T04:03:44;1.97;;;1.70;;
24277;SDS011;12394;42.692;23.314;2024-03-25T04:06:10;1.70;;;1.60;;
24277;SDS011;12394;42.692;23.314;2024-03-25T04:08:38;1.60;;;1.50;;
24277;SDS011;12394;42.692;23.314;2024-03-25T04:11:04;2.13;;;1.70;;
24277;SDS011;12394;42.692;23.314;2024-03-25T04:13:31;1.70;;;1.40;;
24277;SDS011;12394;42.692;23.314;2024-03-25T04:16:00;1.93;;;1.60;;
24277;SDS011;12394;42.692;23.314;2024-03-25T04:18:27;3.93;;;3.07;;
24277;SDS011;12394;42.692;23.314;2024-03-25T04:20:53;2.83;;;2.17;;
24277;SDS011;12394;42.692;23.314;2024-03-25T04:23:18;2.00;;;1.80;;
24277;SDS011;12394;42.692;23.314;2024-03-25T04:25:44;2.57;;;2.30;;
24277;SDS011;12394;42.692;23.314;2024-03-25T04:28:09;2.93;;;2.37;;
24277;SDS011;12394;42.692;23.314;2024-03-25T04:30:35;3.17;;;2.40;;
24277;SDS011;12394;42.692;23.314;2024-03-25T04:33:01;3.80;;;2.10;;
24277;SDS011;12394;42.692;23.314;2024-03-25T04:35:26;3.30;;;2.80;;
24277;SDS011;12394;42.692;23.314;2024-03-25T04:37:52;4.60;;;3.30;;
24277;SDS011;12394;42.692;23.314;2024-03-25T04:40:18;3.93;;;3.27;;
24277;SDS011;12394;42.692;23.314;2024-03-25T04:42:45;5.20;;;2.87;;
24277;SDS011;12394;42.692;23.314;2024-03-25T04:45:10;6.93;;;4.00;;
24277;SDS011;12394;42.692;23.314;2024-03-25T04:47:37;5.10;;;3.73;;
24277;SDS011;12394;42.692;23.314;2024-03-25T04:50:02;6.43;;;4.37;;
24277;SDS011;12394;42.692;23.314;2024-03-25T04:52:28;6.20;;;4.40;;
24277;SDS011;12394;42.692;23.314;2024-03-25T04:54:53;8.63;;;5.07;;
24277;SDS011;12394;42.692;23.314;2024-03-25T04:57:19;9.67;;;6.53;;
24277;SDS011;12394;42.692;23.314;2024-03-25T04:59:45;6.73;;;5.10;;
24277;SDS011;12394;42.692;23.314;2024-03-25T05:02:10;7.63;;;5.47;;
24277;SDS011;12394;42.692;23.314;2024-03-25T05:04:36;8.40;;;5.60;;
24277;SDS011;12394;42.692;23.314;2024-03-25T05:07:01;7.17;;;4.93;;
24277;SDS011;12394;42.692;23.314;2024-03-25T05:09:27;6.77;;;5.17;;
24277;SDS011;12394;42.692;23.314;2024-03-25T05:11:52;8.93;;;5.43;;
24277;SDS011;12394;42.692;23.314;2024-03-25T05:14:18;8.60;;;5.17;;
24277;SDS011;12394;42.692;23.314;2024-03-25T05:16:43;8.20;;;5.63;;
24277;SDS011;12394;42.692;23.314;2024-03-25T05:19:08;10.97;;;5.90;;
24277;SDS011;12394;42.692;23.314;2024-03-25T05:21:34;10.10;;;6.43;;
24277;SDS011;12394;42.692;23.314;2024-03-25T05:23:59;8.03;;;5.93;;
24277;SDS011;12394;42.692;23.314;2024-03-25T05:26:25;9.20;;;7.40;;
24277;SDS011;12394;42.692;23.314;2024-03-25T05:28:56;9.60;;;6.83;;
24277;SDS011;12394;42.692;23.314;2024-03-25T05:31:22;7.87;;;5.60;;
24277;SDS011;12394;42.692;23.314;2024-03-25T05:33:49;9.50;;;7.37;;
24277;SDS011;12394;42.692;23.314;2024-03-25T05:36:15;8.83;;;6.60;;
24277;SDS011;12394;42.692;23.314;2024-03-25T05:38:40;10.03;;;6.23;;
24277;SDS011;12394;42.692;23.314;2024-03-25T05:41:09;12.67;;;7.37;;
24277;SDS011;12394;42.692;23.314;2024-03-25T05:43:35;8.73;;;6.70;;
24277;SDS011;12394;42.692;23.314;2024-03-25T05:46:00;7.87;;;6.70;;
24277;SDS011;12394;42.692;23.314;2024-03-25T05:48:26;12.33;;;6.50;;
24277;SDS011;12394;42.692;23.314;2024-03-25T05:53:27;9.97;;;7.17;;
24277;SDS011;12394;42.692;23.314;2024-03-25T05:55:53;8.13;;;6.70;;
24277;SDS011;12394;42.692;23.314;2024-03-25T05:58:19;9.60;;;6.93;;
24277;SDS011;12394;42.692;23.314;2024-03-25T06:00:46;11.43;;;7.23;;
24277;SDS011;12394;42.692;23.314;2024-03-25T06:03:12;9.57;;;6.93;;
24277;SDS011;12394;42.692;23.314;2024-03-25T06:05:37;8.57;;;6.50;;
24277;SDS011;12394;42.692;23.314;2024-03-25T06:08:03;8.97;;;6.53;;
24277;SDS011;12394;42.692;23.314;2024-03-25T06:10:29;11.27;;;7.37;;
24277;SDS011;12394;42.692;23.314;2024-03-25T06:12:54;12.30;;;6.93;;
24277;SDS011;12394;42.692;23.314;2024-03-25T06:15:20;15.00;;;8.03;;
24277;SDS011;12394;42.692;23.314;2024-03-25T06:17:45;9.87;;;6.93;;
24277;SDS011;12394;42.692;23.314;2024-03-25T06:20:11;10.30;;;7.60;;
24277;SDS011;12394;42.692;23.314;2024-03-25T06:22:36;10.47;;;8.00;;
24277;SDS011;12394;42.692;23.314;2024-03-25T06:25:01;9.30;;;7.57;;
24277;SDS011;12394;42.692;23.314;2024-03-25T06:27:27;11.13;;;7.17;;
24277;SDS011;12394;42.692;23.314;2024-03-25T06:29:52;11.50;;;7.53;;
24277;SDS011;12394;42.692;23.314;2024-03-25T06:32:38;11.63;;;8.33;;
24277;SDS011;12394;42.692;23.314;2024-03-25T06:35:22;12.60;;;8.07;;
24277;SDS011;12394;42.692;23.314;2024-03-25T06:37:47;8.93;;;7.17;;
24277;SDS011;12394;42.692;23.314;2024-03-25T06:40:13;11.17;;;7.23;;
24277;SDS011;12394;42.692;23.314;2024-03-25T06:42:38;10.23;;;7.70;;
24277;SDS011;12394;42.692;23.314;2024-03-25T06:45:04;12.47;;;8.37;;
24277;SDS011;12394;42.692;23.314;2024-03-25T06:47:29;9.87;;;7.13;;
24277;SDS011;12394;42.692;23.314;2024-03-25T06:49:55;11.13;;;7.77;;
24277;SDS011;12394;42.692;23.314;2024-03-25T06:52:20;10.63;;;7.70;;
24277;SDS011;12394;42.692;23.314;2024-03-25T06:54:46;9.37;;;7.10;;
24277;SDS011;12394;42.692;23.314;2024-03-25T06:57:11;12.47;;;7.67;;
24277;SDS011;12394;42.692;23.314;2024-03-25T06:59:37;10.50;;;7.83;;
24277;SDS011;12394;42.692;23.314;2024-03-25T07:02:02;9.80;;;8.03;;
24277;SDS011;12394;42.692;23.314;2024-03-25T07:04:28;11.77;;;8.63;;
24277;SDS011;12394;42.692;23.314;2024-03-25T07:06:53;9.70;;;7.53;;
24277;SDS011;12394;42.692;23.314;2024-03-25T07:09:19;8.60;;;7.13;;
24277;SDS011;12394;42.692;23.314;2024-03-25T07:11:45;16.40;;;7.73;;
24277;SDS011;12394;42.692;23.314;2024-03-25T07:14:12;7.97;;;7.03;;
24277;SDS011;12394;42.692;23.314;2024-03-25T07:16:37;10.13;;;8.03;;
24277;SDS011;12394;42.692;23.314;2024-03-25T07:19:03;9.87;;;7.17;;
24277;SDS011;12394;42.692;23.314;2024-03-25T07:21:28;8.80;;;6.93;;
24277;SDS011;12394;42.692;23.314;2024-03-25T07:23:54;7.00;;;6.30;;
24277;SDS011;12394;42.692;23.314;2024-03-25T07:26:19;8.37;;;6.63;;
24277;SDS011;12394;42.692;23.314;2024-03-25T07:28:45;7.83;;;6.17;;
24277;SDS011;12394;42.692;23.314;2024-03-25T07:31:10;11.90;;;6.10;;
24277;SDS011;12394;42.692;23.314;2024-03-25T07:33:36;9.53;;;6.70;;
24277;SDS011;12394;42.692;23.314;2024-03-25T07:36:01;8.37;;;6.47;;
24277;SDS011;12394;42.692;23.314;2024-03-25T07:38:27;9.10;;;6.50;;
24277;SDS011;12394;42.692;23.314;2024-03-25T07:40:52;7.83;;;5.97;;
24277;SDS011;12394;42.692;23.314;2024-03-25T07:43:18;6.23;;;5.47;;
24277;SDS011;12394;42.692;23.314;2024-03-25T07:45:43;7.90;;;6.37;;
24277;SDS011;12394;42.692;23.314;2024-03-25T07:48:10;8.90;;;6.33;;
24277;SDS011;12394;42.692;23.314;2024-03-25T07:50:37;6.87;;;5.93;;
24277;SDS011;12394;42.692;23.314;2024-03-25T07:53:03;13.10;;;6.13;;
24277;SDS011;12394;42.692;23.314;2024-03-25T07:55:28;9.83;;;6.30;;
24277;SDS011;12394;42.692;23.314;2024-03-25T07:57:54;9.53;;;6.63;;
24277;SDS011;12394;42.692;23.314;2024-03-25T08:00:19;7.33;;;6.07;;
24277;SDS011;12394;42.692;23.314;2024-03-25T08:02:45;8.97;;;6.67;;
24277;SDS011;12394;42.692;23.314;2024-03-25T08:05:11;9.77;;;5.97;;
24277;SDS011;12394;42.692;23.314;2024-03-25T08:07:37;5.87;;;5.20;;
24277;SDS011;12394;42.692;23.314;2024-03-25T08:10:02;8.77;;;5.00;;
24277;SDS011;12394;42.692;23.314;2024-03-25T08:12:29;5.73;;;5.00;;
24277;SDS011;12394;42.692;23.314;2024-03-25T08:14:55;6.70;;;5.30;;
24277;SDS011;12394;42.692;23.314;2024-03-25T08:17:21;5.63;;;5.07;;
24277;SDS011;12394;42.692;23.314;2024-03-25T08:19:48;6.83;;;5.30;;
24277;SDS011;12394;42.692;23.314;2024-03-25T08:22:14;10.27;;;5.37;;
24277;SDS011;12394;42.692;23.314;2024-03-25T08:24:39;11.57;;;5.67;;
24277;SDS011;12394;42.692;23.314;2024-03-25T08:27:05;5.97;;;4.30;;
24277;SDS011;12394;42.692;23.314;2024-03-25T08:29:31;8.70;;;5.43;;
24277;SDS011;12394;42.692;23.314;2024-03-25T08:31:56;8.63;;;4.73;;
24277;SDS011;12394;42.692;23.314;2024-03-25T08:34:22;8.07;;;5.03;;
24277;SDS011;12394;42.692;23.314;2024-03-25T08:36:47;7.70;;;4.73;;
24277;SDS011;12394;42.692;23.314;2024-03-25T08:39:13;5.33;;;4.47;;
24277;SDS011;12394;42.692;23.314;2024-03-25T08:41:39;4.70;;;4.20;;
24277;SDS011;12394;42.692;23.314;2024-03-25T08:44:04;6.77;;;5.20;;
24277;SDS011;12394;42.692;23.314;2024-03-25T08:46:29;5.43;;;4.80;;
24277;SDS011;12394;42.692;23.314;2024-03-25T08:48:55;8.33;;;5.13;;
24277;SDS011;12394;42.692;23.314;2024-03-25T08:51:20;5.67;;;5.17;;
24277;SDS011;12394;42.692;23.314;2024-03-25T08:53:46;7.90;;;6.23;;
24277;SDS011;12394;42.692;23.314;2024-03-25T08:56:11;7.83;;;5.73;;
24277;SDS011;12394;42.692;23.314;2024-03-25T08:58:37;9.33;;;4.80;;
24277;SDS011;12394;42.692;23.314;2024-03-25T09:01:03;9.13;;;5.00;;
24277;SDS011;12394;42.692;23.314;2024-03-25T09:03:28;12.07;;;5.10;;
24277;SDS011;12394;42.692;23.314;2024-03-25T09:05:55;10.10;;;6.50;;
24277;SDS011;12394;42.692;23.314;2024-03-25T09:08:23;8.17;;;5.53;;
24277;SDS011;12394;42.692;23.314;2024-03-25T09:10:49;6.00;;;5.40;;
24277;SDS011;12394;42.692;23.314;2024-03-25T09:13:32;5.80;;;5.20;;
24277;SDS011;12394;42.692;23.314;2024-03-25T09:15:58;6.00;;;5.40;;
24277;SDS011;12394;42.692;23.314;2024-03-25T09:18:23;8.20;;;6.00;;
24277;SDS011;12394;42.692;23.314;2024-03-25T09:20:50;10.40;;;5.67;;
24277;SDS011;12394;42.692;23.314;2024-03-25T09:23:15;8.77;;;5.20;;
24277;SDS011;12394;42.692;23.314;2024-03-25T09:25:50;6.87;;;5.60;;
24277;SDS011;12394;42.692;23.314;2024-03-25T09:28:16;7.60;;;5.30;;
24277;SDS011;12394;42.692;23.314;2024-03-25T09:30:42;7.30;;;6.37;;
24277;SDS011;12394;42.692;23.314;2024-03-25T09:33:07;8.67;;;5.23;;
24277;SDS011;12394;42.692;23.314;2024-03-25T09:35:34;6.60;;;5.90;;
24277;SDS011;12394;42.692;23.314;2024-03-25T09:38:02;7.77;;;5.93;;
24277;SDS011;12394;42.692;23.314;2024-03-25T09:40:27;8.07;;;6.50;;
24277;SDS011;12394;42.692;23.314;2024-03-25T09:42:57;8.93;;;6.03;;
24277;SDS011;12394;42.692;23.314;2024-03-25T09:45:27;9.23;;;6.50;;
24277;SDS011;12394;42.692;23.314;2024-03-25T09:47:55;10.50;;;6.30;;
24277;SDS011;12394;42.692;23.314;2024-03-25T09:50:21;7.77;;;5.47;;
24277;SDS011;12394;42.692;23.314;2024-03-25T09:52:47;6.57;;;5.40;;
24277;SDS011;12394;42.692;23.314;2024-03-25T09:55:14;8.57;;;5.10;;
24277;SDS011;12394;42.692;23.314;2024-03-25T09:57:40;7.10;;;5.53;;
24277;SDS011;12394;42.692;23.314;2024-03-25T10:00:07;11.73;;;5.57;;
24277;SDS011;12394;42.692;23.314;2024-03-25T10:02:37;8.50;;;5.37;;
24277;SDS011;12394;42.692;23.314;2024-03-25T10:05:05;11.97;;;6.07;;
24277;SDS011;12394;42.692;23.314;2024-03-25T10:07:32;7.47;;;5.77;;
24277;SDS011;12394;42.692;23.314;2024-03-25T10:09:58;7.77;;;4.60;;
24277;SDS011;12394;42.692;23.314;2024-03-25T10:12:24;7.67;;;4.80;;
24277;SDS011;12394;42.692;23.314;2024-03-25T10:14:49;5.07;;;4.37;;
24277;SDS011;12394;42.692;23.314;2024-03-25T10:17:15;6.33;;;5.17;;
24277;SDS011;12394;42.692;23.314;2024-03-25T10:19:41;7.00;;;4.93;;
24277;SDS011;12394;42.692;23.314;2024-03-25T10:22:07;6.33;;;5.13;;
24277;SDS011;12394;42.692;23.314;2024-03-25T10:24:43;5.97;;;4.80;;
24277;SDS011;12394;42.692;23.314;2024-03-25T10:27:23;5.83;;;4.90;;
24277;SDS011;12394;42.692;23.314;2024-03-25T10:29:52;5.37;;;4.70;;
24277;SDS011;12394;42.692;23.314;2024-03-25T10:32:19;9.20;;;5.50;;
24277;SDS011;12394;42.692;23.314;2024-03-25T10:34:44;6.57;;;4.80;;
24277;SDS011;12394;42.692;23.314;2024-03-25T10:37:10;5.03;;;4.00;;
24277;SDS011;12394;42.692;23.314;2024-03-25T10:39:43;6.40;;;5.80;;
24277;SDS011;12394;42.692;23.314;2024-03-25T10:42:25;5.37;;;3.77;;
24277;SDS011;12394;42.692;23.314;2024-03-25T10:44:50;4.83;;;4.30;;
24277;SDS011;12394;42.692;23.314;2024-03-25T10:47:21;7.60;;;4.07;;
24277;SDS011;12394;42.692;23.314;2024-03-25T10:49:56;6.70;;;4.27;;
24277;SDS011;12394;42.692;23.314;2024-03-25T10:52:23;4.13;;;3.73;;
24277;SDS011;12394;42.692;23.314;2024-03-25T10:54:50;4.73;;;3.53;;
24277;SDS011;12394;42.692;23.314;2024-03-25T10:57:16;6.43;;;4.50;;
24277;SDS011;12394;42.692;23.314;2024-03-25T10:59:45;5.67;;;4.50;;
24277;SDS011;12394;42.692;23.314;2024-03-25T11:02:11;6.10;;;3.70;;
24277;SDS011;12394;42.692;23.314;2024-03-25T11:04:37;4.70;;;3.53;;
24277;SDS011;12394;42.692;23.314;2024-03-25T11:07:15;5.93;;;4.70;;
24277;SDS011;12394;42.692;23.314;2024-03-25T11:09:41;4.47;;;3.80;;
24277;SDS011;12394;42.692;23.314;2024-03-25T11:12:10;3.90;;;3.43;;
24277;SDS011;12394;42.692;23.314;2024-03-25T11:14:38;7.40;;;5.43;;
24277;SDS011;12394;42.692;23.314;2024-03-25T11:17:14;6.37;;;4.07;;
24277;SDS011;12394;42.692;23.314;2024-03-25T11:19:40;4.57;;;3.43;;
24277;SDS011;12394;42.692;23.314;2024-03-25T11:22:07;8.80;;;3.13;;
24277;SDS011;12394;42.692;23.314;2024-03-25T11:24:34;6.73;;;4.10;;
24277;SDS011;12394;42.692;23.314;2024-03-25T11:27:06;6.30;;;3.10;;
24277;SDS011;12394;42.692;23.314;2024-03-25T11:29:32;3.97;;;2.73;;
24277;SDS011;12394;42.692;23.314;2024-03-25T11:31:59;3.67;;;3.37;;
24277;SDS011;12394;42.692;23.314;2024-03-25T11:34:28;3.63;;;2.90;;
24277;SDS011;12394;42.692;23.314;2024-03-25T11:36:54;6.60;;;3.33;;
24277;SDS011;12394;42.692;23.314;2024-03-25T11:39:21;6.13;;;3.47;;
24277;SDS011;12394;42.692;23.314;2024-03-25T11:41:47;3.63;;;3.03;;
24277;SDS011;12394;42.692;23.314;2024-03-25T11:44:13;6.27;;;3.57;;
24277;SDS011;12394;42.692;23.314;2024-03-25T11:46:39;4.63;;;3.53;;
24277;SDS011;12394;42.692;23.314;2024-03-25T11:49:11;4.60;;;3.30;;
24277;SDS011;12394;42.692;23.314;2024-03-25T11:51:38;8.17;;;4.70;;
24277;SDS011;12394;42.692;23.314;2024-03-25T11:54:06;8.23;;;3.87;;
24277;SDS011;12394;42.692;23.314;2024-03-25T11:57:11;8.07;;;3.87;;
24277;SDS011;12394;42.692;23.314;2024-03-25T11:59:37;4.83;;;3.17;;
24277;SDS011;12394;42.692;23.314;2024-03-25T12:02:05;3.10;;;2.80;;
24277;SDS011;12394;42.692;23.314;2024-03-25T12:04:32;3.87;;;3.30;;
24277;SDS011;12394;42.692;23.314;2024-03-25T12:06:58;4.63;;;3.63;;
24277;SDS011;12394;42.692;23.314;2024-03-25T12:09:24;3.83;;;3.43;;
24277;SDS011;12394;42.692;23.314;2024-03-25T12:12:08;8.37;;;3.53;;
24277;SDS011;12394;42.692;23.314;2024-03-25T12:14:34;3.07;;;2.67;;
24277;SDS011;12394;42.692;23.314;2024-03-25T12:17:00;4.50;;;3.50;;
24277;SDS011;12394;42.692;23.314;2024-03-25T12:19:27;4.90;;;3.40;;
24277;SDS011;12394;42.692;23.314;2024-03-25T12:22:01;5.67;;;3.90;;
24277;SDS011;12394;42.692;23.314;2024-03-25T12:24:26;3.90;;;3.10;;
24277;SDS011;12394;42.692;23.314;2024-03-25T12:26:52;3.60;;;2.83;;
24277;SDS011;12394;42.692;23.314;2024-03-25T12:29:17;7.30;;;3.53;;
24277;SDS011;12394;42.692;23.314;2024-03-25T12:31:43;4.20;;;3.47;;
24277;SDS011;12394;42.692;23.314;2024-03-25T12:34:21;7.60;;;3.30;;
24277;SDS011;12394;42.692;23.314;2024-03-25T12:36:50;4.90;;;3.07;;
24277;SDS011;12394;42.692;23.314;2024-03-25T12:39:18;6.00;;;3.17;;
24277;SDS011;12394;42.692;23.314;2024-03-25T12:41:44;3.50;;;2.87;;
24277;SDS011;12394;42.692;23.314;2024-03-25T12:44:11;3.30;;;3.00;;
24277;SDS011;12394;42.692;23.314;2024-03-25T12:46:38;4.93;;;3.20;;
24277;SDS011;12394;42.692;23.314;2024-03-25T12:49:04;3.30;;;3.00;;
24277;SDS011;12394;42.692;23.314;2024-03-25T12:51:30;3.40;;;3.10;;
24277;SDS011;12394;42.692;23.314;2024-03-25T12:53:56;4.53;;;2.53;;
24277;SDS011;12394;42.692;23.314;2024-03-25T12:56:22;3.67;;;3.30;;
24277;SDS011;12394;42.692;23.314;2024-03-25T12:58:48;4.13;;;3.10;;
24277;SDS011;12394;42.692;23.314;2024-03-25T13:01:14;3.07;;;2.40;;
24277;SDS011;12394;42.692;23.314;2024-03-25T13:03:40;2.60;;;2.40;;
24277;SDS011;12394;42.692;23.314;2024-03-25T13:06:07;3.10;;;2.70;;
24277;SDS011;12394;42.692;23.314;2024-03-25T13:08:33;3.40;;;3.10;;
24277;SDS011;12394;42.692;23.314;2024-03-25T13:10:58;3.67;;;3.30;;
24277;SDS011;12394;42.692;23.314;2024-03-25T13:13:25;4.43;;;3.07;;
24277;SDS011;12394;42.692;23.314;2024-03-25T13:15:50;3.10;;;2.80;;
24277;SDS011;12394;42.692;23.314;2024-03-25T13:18:16;7.67;;;3.23;;
24277;SDS011;12394;42.692;23.314;2024-03-25T13:20:43;3.87;;;3.30;;
24277;SDS011;12394;42.692;23.314;2024-03-25T13:23:09;5.70;;;3.33;;
24277;SDS011;12394;42.692;23.314;2024-03-25T13:25:34;4.50;;;3.63;;
24277;SDS011;12394;42.692;23.314;2024-03-25T13:28:00;7.23;;;3.57;;
24277;SDS011;12394;42.692;23.314;2024-03-25T13:30:25;6.70;;;3.77;;
24277;SDS011;12394;42.692;23.314;2024-03-25T13:32:52;3.73;;;3.20;;
24277;SDS011;12394;42.692;23.314;2024-03-25T13:35:17;4.67;;;3.40;;
24277;SDS011;12394;42.692;23.314;2024-03-25T13:37:43;5.87;;;3.50;;
24277;SDS011;12394;42.692;23.314;2024-03-25T13:40:09;4.23;;;3.37;;
24277;SDS011;12394;42.692;23.314;2024-03-25T13:42:36;6.13;;;3.47;;
24277;SDS011;12394;42.692;23.314;2024-03-25T13:45:02;3.27;;;2.50;;
24277;SDS011;12394;42.692;23.314;2024-03-25T13:47:29;8.13;;;3.20;;
24277;SDS011;12394;42.692;23.314;2024-03-25T13:50:04;4.23;;;3.20;;
24277;SDS011;12394;42.692;23.314;2024-03-25T13:52:33;5.27;;;2.90;;
24277;SDS011;12394;42.692;23.314;2024-03-25T13:54:58;4.83;;;2.90;;
24277;SDS011;12394;42.692;23.314;2024-03-25T13:57:24;5.50;;;3.10;;
24277;SDS011;12394;42.692;23.314;2024-03-25T13:59:50;5.00;;;2.87;;
24277;SDS011;12394;42.692;23.314;2024-03-25T14:02:16;3.20;;;1.70;;
24277;SDS011;12394;42.692;23.314;2024-03-25T14:04:42;1.73;;;1.63;;
24277;SDS011;12394;42.692;23.314;2024-03-25T14:07:07;2.70;;;1.50;;
24277;SDS011;12394;42.692;23.314;2024-03-25T14:09:33;4.73;;;1.50;;
24277;SDS011;12394;42.692;23.314;2024-03-25T14:11:58;9.30;;;2.37;;
24277;SDS011;12394;42.692;23.314;2024-03-25T14:14:24;2.40;;;2.10;;
24277;SDS011;12394;42.692;23.314;2024-03-25T14:16:50;4.07;;;1.93;;
24277;SDS011;12394;42.692;23.314;2024-03-25T14:19:16;3.17;;;2.07;;
24277;SDS011;12394;42.692;23.314;2024-03-25T14:21:42;2.87;;;1.83;;
24277;SDS011;12394;42.692;23.314;2024-03-25T14:24:07;2.73;;;2.00;;
24277;SDS011;12394;42.692;23.314;2024-03-25T14:26:33;3.20;;;2.13;;
24277;SDS011;12394;42.692;23.314;2024-03-25T14:28:58;2.27;;;1.63;;
24277;SDS011;12394;42.692;23.314;2024-03-25T14:31:27;2.23;;;1.90;;
24277;SDS011;12394;42.692;23.314;2024-03-25T14:33:54;1.97;;;1.63;;
24277;SDS011;12394;42.692;23.314;2024-03-25T14:36:20;1.90;;;1.50;;
24277;SDS011;12394;42.692;23.314;2024-03-25T14:38:45;2.60;;;2.30;;
24277;SDS011;12394;42.692;23.314;2024-03-25T14:41:11;2.83;;;1.30;;
24277;SDS011;12394;42.692;23.314;2024-03-25T14:43:37;4.30;;;1.80;;
24277;SDS011;12394;42.692;23.314;2024-03-25T14:46:03;3.07;;;1.70;;
24277;SDS011;12394;42.692;23.314;2024-03-25T14:48:29;4.97;;;2.40;;
24277;SDS011;12394;42.692;23.314;2024-03-25T14:50:55;3.10;;;1.97;;
24277;SDS011;12394;42.692;23.314;2024-03-25T14:53:21;3.00;;;1.90;;
24277;SDS011;12394;42.692;23.314;2024-03-25T14:55:46;3.37;;;1.83;;